sensor_id;sensor_type;location;lat;lon;timestamp;temperature;humidity
16384;DHT22;8301;51.440;6.610;2022-12-08T00:01:32;3.10;99.90
16384;DHT22;8301;51.440;6.610;2022-12-08T00:04:02;3.20;99.90
16384;DHT22;8301;51.440;6.610;2022-12-08T00:06:33;3.20;99.90
16384;DHT22;8301;51.440;6.610;2022-12-08T00:09:33;3.20;99.90
16384;DHT22;8301;51.440;6.610;2022-12-08T00:12:03;3.10;99.90
16384;DHT22;8301;51.440;6.610;2022-12-08T00:14:42;3.10;99.90
16384;DHT22;8301;51.440;6.610;2022-12-08T00:17:10;3.20;99.90
16384;DHT22;8301;51.440;6.610;2022-12-08T00:19:38;3.00;99.90
16384;DHT22;8301;51.440;6.610;2022-12-08T00:22:07;3.10;99.90
16384;DHT22;8301;51.440;6.610;2022-12-08T00:24:36;3.00;99.90
16384;DHT22;8301;51.440;6.610;2022-12-08T00:27:10;2.90;99.90
16384;DHT22;8301;51.440;6.610;2022-12-08T00:29:38;3.00;99.90
16384;DHT22;8301;51.440;6.610;2022-12-08T00:32:06;2.90;99.90
16384;DHT22;8301;51.440;6.610;2022-12-08T00:34:33;2.90;99.90
16384;DHT22;8301;51.440;6.610;2022-12-08T00:37:01;2.80;99.90
16384;DHT22;8301;51.440;6.610;2022-12-08T00:39:29;2.80;99.90
16384;DHT22;8301;51.440;6.610;2022-12-08T00:41:57;2.80;99.90
16384;DHT22;8301;51.440;6.610;2022-12-08T00:44:42;2.80;99.90
16384;DHT22;8301;51.440;6.610;2022-12-08T00:47:11;2.80;99.90
16384;DHT22;8301;51.440;6.610;2022-12-08T00:49:39;2.90;99.90
16384;DHT22;8301;51.440;6.610;2022-12-08T00:52:07;2.90;99.90
16384;DHT22;8301;51.440;6.610;2022-12-08T00:54:35;2.90;99.90
16384;DHT22;8301;51.440;6.610;2022-12-08T00:57:03;2.90;99.90
16384;DHT22;8301;51.440;6.610;2022-12-08T00:59:30;2.90;99.90
16384;DHT22;8301;51.440;6.610;2022-12-08T01:01:58;3.00;99.90
16384;DHT22;8301;51.440;6.610;2022-12-08T01:04:30;3.00;99.90
16384;DHT22;8301;51.440;6.610;2022-12-08T01:07:07;2.90;99.90
16384;DHT22;8301;51.440;6.610;2022-12-08T01:12:12;3.00;99.90
16384;DHT22;8301;51.440;6.610;2022-12-08T01:14:39;2.90;99.90
16384;DHT22;8301;51.440;6.610;2022-12-08T01:17:08;3.00;99.90
16384;DHT22;8301;51.440;6.610;2022-12-08T01:19:39;3.00;99.90
16384;DHT22;8301;51.440;6.610;2022-12-08T01:22:09;3.00;99.90
16384;DHT22;8301;51.440;6.610;2022-12-08T01:24:36;3.00;99.90
16384;DHT22;8301;51.440;6.610;2022-12-08T01:27:04;3.00;99.90
16384;DHT22;8301;51.440;6.610;2022-12-08T01:29:34;2.90;99.90
16384;DHT22;8301;51.440;6.610;2022-12-08T01:32:01;3.00;99.90
16384;DHT22;8301;51.440;6.610;2022-12-08T01:34:29;3.00;99.90
16384;DHT22;8301;51.440;6.610;2022-12-08T01:36:57;3.10;99.90
16384;DHT22;8301;51.440;6.610;2022-12-08T01:39:25;3.10;99.90
16384;DHT22;8301;51.440;6.610;2022-12-08T01:41:53;3.20;99.90
16384;DHT22;8301;51.440;6.610;2022-12-08T01:46:53;3.20;99.90
16384;DHT22;8301;51.440;6.610;2022-12-08T01:49:26;3.30;99.90
16384;DHT22;8301;51.440;6.610;2022-12-08T01:52:02;3.30;99.90
16384;DHT22;8301;51.440;6.610;2022-12-08T01:54:33;3.30;99.90
16384;DHT22;8301;51.440;6.610;2022-12-08T01:57:07;3.30;99.90
16384;DHT22;8301;51.440;6.610;2022-12-08T01:59:38;3.30;99.90
16384;DHT22;8301;51.440;6.610;2022-12-08T02:02:04;3.40;99.90
16384;DHT22;8301;51.440;6.610;2022-12-08T02:04:32;3.40;99.90
16384;DHT22;8301;51.440;6.610;2022-12-08T02:07:00;3.40;99.90
16384;DHT22;8301;51.440;6.610;2022-12-08T02:09:29;3.40;99.90
16384;DHT22;8301;51.440;6.610;2022-12-08T02:11:58;3.40;99.90
16384;DHT22;8301;51.440;6.610;2022-12-08T02:14:26;3.40;99.90
16384;DHT22;8301;51.440;6.610;2022-12-08T02:17:07;3.40;99.90
16384;DHT22;8301;51.440;6.610;2022-12-08T02:23:10;3.40;99.90
16384;DHT22;8301;51.440;6.610;2022-12-08T02:25:09;3.40;99.90
16384;DHT22;8301;51.440;6.610;2022-12-08T02:36:53;3.50;99.90
16384;DHT22;8301;51.440;6.610;2022-12-08T02:39:36;3.50;99.90
16384;DHT22;8301;51.440;6.610;2022-12-08T02:44:51;3.50;99.90
16384;DHT22;8301;51.440;6.610;2022-12-08T02:47:22;3.50;99.90
16384;DHT22;8301;51.440;6.610;2022-12-08T02:49:50;3.50;99.90
16384;DHT22;8301;51.440;6.610;2022-12-08T02:54:51;3.50;99.90
16384;DHT22;8301;51.440;6.610;2022-12-08T02:57:45;3.50;99.90
16384;DHT22;8301;51.440;6.610;2022-12-08T03:00:23;3.50;99.90
16384;DHT22;8301;51.440;6.610;2022-12-08T03:05:54;3.50;99.90
16384;DHT22;8301;51.440;6.610;2022-12-08T03:08:54;3.60;99.90
16384;DHT22;8301;51.440;6.610;2022-12-08T03:11:34;3.60;99.90
16384;DHT22;8301;51.440;6.610;2022-12-08T03:14:04;3.60;99.90
16384;DHT22;8301;51.440;6.610;2022-12-08T03:16:35;3.60;99.90
16384;DHT22;8301;51.440;6.610;2022-12-08T03:19:06;3.60;99.90
16384;DHT22;8301;51.440;6.610;2022-12-08T03:21:34;3.60;99.90
16384;DHT22;8301;51.440;6.610;2022-12-08T03:24:05;3.60;99.90
16384;DHT22;8301;51.440;6.610;2022-12-08T03:26:37;3.60;99.90
16384;DHT22;8301;51.440;6.610;2022-12-08T03:29:04;3.60;99.90
16384;DHT22;8301;51.440;6.610;2022-12-08T03:31:36;3.60;99.90
16384;DHT22;8301;51.440;6.610;2022-12-08T03:34:04;3.60;99.90
16384;DHT22;8301;51.440;6.610;2022-12-08T03:36:32;3.60;99.90
16384;DHT22;8301;51.440;6.610;2022-12-08T03:39:00;3.60;99.90
16384;DHT22;8301;51.440;6.610;2022-12-08T03:41:27;3.60;99.90
16384;DHT22;8301;51.440;6.610;2022-12-08T03:43:56;3.60;99.90
16384;DHT22;8301;51.440;6.610;2022-12-08T03:46:28;3.60;99.90
16384;DHT22;8301;51.440;6.610;2022-12-08T03:48:57;3.60;99.90
16384;DHT22;8301;51.440;6.610;2022-12-08T03:51:25;3.60;99.90
16384;DHT22;8301;51.440;6.610;2022-12-08T03:53:52;3.70;99.90
16384;DHT22;8301;51.440;6.610;2022-12-08T03:56:31;3.70;99.90
16384;DHT22;8301;51.440;6.610;2022-12-08T03:58:55;3.70;99.90
16384;DHT22;8301;51.440;6.610;2022-12-08T04:01:30;3.70;99.90
16384;DHT22;8301;51.440;6.610;2022-12-08T04:03:58;3.70;99.90
16384;DHT22;8301;51.440;6.610;2022-12-08T04:06:27;3.70;99.90
16384;DHT22;8301;51.440;6.610;2022-12-08T04:08:54;3.70;99.90
16384;DHT22;8301;51.440;6.610;2022-12-08T04:11:22;3.70;99.90
16384;DHT22;8301;51.440;6.610;2022-12-08T04:13:49;3.70;99.90
16384;DHT22;8301;51.440;6.610;2022-12-08T04:16:20;3.70;99.90
16384;DHT22;8301;51.440;6.610;2022-12-08T04:18:48;3.70;99.90
16384;DHT22;8301;51.440;6.610;2022-12-08T04:21:16;3.70;99.90
16384;DHT22;8301;51.440;6.610;2022-12-08T04:23:45;3.70;99.90
16384;DHT22;8301;51.440;6.610;2022-12-08T04:26:13;3.70;99.90
16384;DHT22;8301;51.440;6.610;2022-12-08T04:28:42;3.70;99.90
16384;DHT22;8301;51.440;6.610;2022-12-08T04:31:10;3.80;99.90
16384;DHT22;8301;51.440;6.610;2022-12-08T04:33:37;3.70;99.90
16384;DHT22;8301;51.440;6.610;2022-12-08T04:36:05;3.80;99.90
16384;DHT22;8301;51.440;6.610;2022-12-08T04:38:33;3.80;99.90
16384;DHT22;8301;51.440;6.610;2022-12-08T04:41:01;3.80;99.90
16384;DHT22;8301;51.440;6.610;2022-12-08T04:43:29;3.70;99.90
16384;DHT22;8301;51.440;6.610;2022-12-08T04:45:57;3.80;99.90
16384;DHT22;8301;51.440;6.610;2022-12-08T04:48:25;3.80;99.90
16384;DHT22;8301;51.440;6.610;2022-12-08T04:50:52;3.80;99.90
16384;DHT22;8301;51.440;6.610;2022-12-08T04:53:24;3.80;99.90
16384;DHT22;8301;51.440;6.610;2022-12-08T04:55:52;3.80;99.90
16384;DHT22;8301;51.440;6.610;2022-12-08T04:58:21;3.80;99.90
16384;DHT22;8301;51.440;6.610;2022-12-08T05:00:48;3.80;99.90
16384;DHT22;8301;51.440;6.610;2022-12-08T05:03:16;3.70;99.90
16384;DHT22;8301;51.440;6.610;2022-12-08T05:05:46;3.80;99.90
16384;DHT22;8301;51.440;6.610;2022-12-08T05:08:13;3.70;99.90
16384;DHT22;8301;51.440;6.610;2022-12-08T05:10:41;3.70;99.90
16384;DHT22;8301;51.440;6.610;2022-12-08T05:13:08;3.60;99.90
16384;DHT22;8301;51.440;6.610;2022-12-08T05:15:43;3.60;99.90
16384;DHT22;8301;51.440;6.610;2022-12-08T05:18:10;3.70;99.90
16384;DHT22;8301;51.440;6.610;2022-12-08T05:20:38;3.60;99.90
16384;DHT22;8301;51.440;6.610;2022-12-08T05:23:06;3.60;99.90
16384;DHT22;8301;51.440;6.610;2022-12-08T05:25:34;3.60;99.90
16384;DHT22;8301;51.440;6.610;2022-12-08T05:28:02;3.50;99.90
16384;DHT22;8301;51.440;6.610;2022-12-08T05:30:30;3.60;99.90
16384;DHT22;8301;51.440;6.610;2022-12-08T05:33:00;3.60;99.90
16384;DHT22;8301;51.440;6.610;2022-12-08T05:35:27;3.60;99.90
16384;DHT22;8301;51.440;6.610;2022-12-08T05:37:55;3.60;99.90
16384;DHT22;8301;51.440;6.610;2022-12-08T05:40:25;3.60;99.90
16384;DHT22;8301;51.440;6.610;2022-12-08T05:42:53;3.60;99.90
16384;DHT22;8301;51.440;6.610;2022-12-08T05:45:21;3.70;99.90
16384;DHT22;8301;51.440;6.610;2022-12-08T05:47:49;3.70;99.90
16384;DHT22;8301;51.440;6.610;2022-12-08T05:50:16;3.70;99.90
16384;DHT22;8301;51.440;6.610;2022-12-08T05:52:44;3.80;99.90
16384;DHT22;8301;51.440;6.610;2022-12-08T05:55:11;3.70;99.90
16384;DHT22;8301;51.440;6.610;2022-12-08T05:57:39;3.70;99.90
16384;DHT22;8301;51.440;6.610;2022-12-08T06:00:07;3.70;99.90
16384;DHT22;8301;51.440;6.610;2022-12-08T06:02:36;3.70;99.90
16384;DHT22;8301;51.440;6.610;2022-12-08T06:05:03;3.70;99.90
16384;DHT22;8301;51.440;6.610;2022-12-08T06:07:32;3.70;99.90
16384;DHT22;8301;51.440;6.610;2022-12-08T06:10:00;3.70;99.90
16384;DHT22;8301;51.440;6.610;2022-12-08T06:12:27;3.70;99.90
16384;DHT22;8301;51.440;6.610;2022-12-08T06:14:55;3.70;99.90
16384;DHT22;8301;51.440;6.610;2022-12-08T06:17:22;3.70;99.90
16384;DHT22;8301;51.440;6.610;2022-12-08T06:19:50;3.60;99.90
16384;DHT22;8301;51.440;6.610;2022-12-08T06:22:18;3.60;99.90
16384;DHT22;8301;51.440;6.610;2022-12-08T06:24:48;3.70;99.90
16384;DHT22;8301;51.440;6.610;2022-12-08T06:27:34;3.70;99.90
16384;DHT22;8301;51.440;6.610;2022-12-08T06:30:03;3.70;99.90
16384;DHT22;8301;51.440;6.610;2022-12-08T06:32:31;3.70;99.90
16384;DHT22;8301;51.440;6.610;2022-12-08T06:35:01;3.70;99.90
16384;DHT22;8301;51.440;6.610;2022-12-08T06:37:29;3.60;99.90
16384;DHT22;8301;51.440;6.610;2022-12-08T06:39:57;3.60;99.90
16384;DHT22;8301;51.440;6.610;2022-12-08T06:42:28;3.60;99.90
16384;DHT22;8301;51.440;6.610;2022-12-08T06:48:16;3.60;99.90
16384;DHT22;8301;51.440;6.610;2022-12-08T06:50:52;3.60;99.90
16384;DHT22;8301;51.440;6.610;2022-12-08T06:53:20;3.60;99.90
16384;DHT22;8301;51.440;6.610;2022-12-08T06:55:52;3.60;99.90
16384;DHT22;8301;51.440;6.610;2022-12-08T06:58:19;3.50;99.90
16384;DHT22;8301;51.440;6.610;2022-12-08T07:00:47;3.60;99.90
16384;DHT22;8301;51.440;6.610;2022-12-08T07:03:16;3.60;99.90
16384;DHT22;8301;51.440;6.610;2022-12-08T07:05:43;3.60;99.90
16384;DHT22;8301;51.440;6.610;2022-12-08T07:08:11;3.60;99.90
16384;DHT22;8301;51.440;6.610;2022-12-08T07:10:38;3.50;99.90
16384;DHT22;8301;51.440;6.610;2022-12-08T07:13:06;3.60;99.90
16384;DHT22;8301;51.440;6.610;2022-12-08T07:15:33;3.50;99.90
16384;DHT22;8301;51.440;6.610;2022-12-08T07:18:01;3.50;99.90
16384;DHT22;8301;51.440;6.610;2022-12-08T07:20:28;3.50;99.90
16384;DHT22;8301;51.440;6.610;2022-12-08T07:22:57;3.50;99.90
16384;DHT22;8301;51.440;6.610;2022-12-08T07:25:26;3.50;99.90
16384;DHT22;8301;51.440;6.610;2022-12-08T07:30:55;3.40;99.90
16384;DHT22;8301;51.440;6.610;2022-12-08T07:33:22;3.40;99.90
16384;DHT22;8301;51.440;6.610;2022-12-08T07:36:03;3.30;99.90
16384;DHT22;8301;51.440;6.610;2022-12-08T07:38:31;3.30;99.90
16384;DHT22;8301;51.440;6.610;2022-12-08T07:40:59;3.20;99.90
16384;DHT22;8301;51.440;6.610;2022-12-08T07:43:27;3.20;99.90
16384;DHT22;8301;51.440;6.610;2022-12-08T07:45:57;3.20;99.90
16384;DHT22;8301;51.440;6.610;2022-12-08T07:48:25;3.20;99.90
16384;DHT22;8301;51.440;6.610;2022-12-08T07:50:59;3.20;99.90
16384;DHT22;8301;51.440;6.610;2022-12-08T07:53:27;3.10;99.90
16384;DHT22;8301;51.440;6.610;2022-12-08T07:55:55;3.20;99.90
16384;DHT22;8301;51.440;6.610;2022-12-08T07:58:28;3.20;99.90
16384;DHT22;8301;51.440;6.610;2022-12-08T08:00:54;3.30;99.90
16384;DHT22;8301;51.440;6.610;2022-12-08T08:03:22;3.20;99.90
16384;DHT22;8301;51.440;6.610;2022-12-08T08:05:54;3.20;99.90
16384;DHT22;8301;51.440;6.610;2022-12-08T08:08:22;3.20;99.90
16384;DHT22;8301;51.440;6.610;2022-12-08T08:10:50;3.20;99.90
16384;DHT22;8301;51.440;6.610;2022-12-08T08:13:19;3.20;99.90
16384;DHT22;8301;51.440;6.610;2022-12-08T08:15:47;3.20;99.90
16384;DHT22;8301;51.440;6.610;2022-12-08T08:18:14;3.10;99.90
16384;DHT22;8301;51.440;6.610;2022-12-08T08:20:43;3.10;99.90
16384;DHT22;8301;51.440;6.610;2022-12-08T08:23:10;3.10;99.90
16384;DHT22;8301;51.440;6.610;2022-12-08T08:25:38;3.10;99.90
16384;DHT22;8301;51.440;6.610;2022-12-08T08:28:05;3.10;99.90
16384;DHT22;8301;51.440;6.610;2022-12-08T08:30:33;3.10;99.90
16384;DHT22;8301;51.440;6.610;2022-12-08T08:33:00;3.00;99.90
16384;DHT22;8301;51.440;6.610;2022-12-08T08:35:28;3.10;99.90
16384;DHT22;8301;51.440;6.610;2022-12-08T08:37:56;3.00;99.90
16384;DHT22;8301;51.440;6.610;2022-12-08T08:40:24;3.10;99.90
16384;DHT22;8301;51.440;6.610;2022-12-08T08:42:52;3.10;99.90
16384;DHT22;8301;51.440;6.610;2022-12-08T08:45:19;3.00;99.90
16384;DHT22;8301;51.440;6.610;2022-12-08T08:47:47;3.00;99.90
16384;DHT22;8301;51.440;6.610;2022-12-08T08:50:14;3.00;99.90
16384;DHT22;8301;51.440;6.610;2022-12-08T08:52:42;3.10;99.90
16384;DHT22;8301;51.440;6.610;2022-12-08T08:55:09;3.00;99.90
16384;DHT22;8301;51.440;6.610;2022-12-08T08:57:37;3.10;99.90
16384;DHT22;8301;51.440;6.610;2022-12-08T09:00:05;3.10;99.90
16384;DHT22;8301;51.440;6.610;2022-12-08T09:02:36;3.10;99.90
16384;DHT22;8301;51.440;6.610;2022-12-08T09:05:05;3.10;99.90
16384;DHT22;8301;51.440;6.610;2022-12-08T09:07:32;3.10;99.90
16384;DHT22;8301;51.440;6.610;2022-12-08T09:10:00;3.20;99.90
16384;DHT22;8301;51.440;6.610;2022-12-08T09:12:36;3.20;99.90
16384;DHT22;8301;51.440;6.610;2022-12-08T09:15:04;3.20;99.90
16384;DHT22;8301;51.440;6.610;2022-12-08T09:17:31;3.30;99.90
16384;DHT22;8301;51.440;6.610;2022-12-08T09:19:59;3.30;99.90
16384;DHT22;8301;51.440;6.610;2022-12-08T09:22:32;3.30;99.90
16384;DHT22;8301;51.440;6.610;2022-12-08T09:25:00;3.30;99.90
16384;DHT22;8301;51.440;6.610;2022-12-08T09:27:27;3.30;99.90
16384;DHT22;8301;51.440;6.610;2022-12-08T09:29:55;3.30;99.90
16384;DHT22;8301;51.440;6.610;2022-12-08T09:32:22;3.30;99.90
16384;DHT22;8301;51.440;6.610;2022-12-08T09:34:50;3.30;99.90
16384;DHT22;8301;51.440;6.610;2022-12-08T09:37:17;3.30;99.90
16384;DHT22;8301;51.440;6.610;2022-12-08T09:39:45;3.30;99.90
16384;DHT22;8301;51.440;6.610;2022-12-08T09:42:15;3.40;99.90
16384;DHT22;8301;51.440;6.610;2022-12-08T09:44:56;3.30;99.90
16384;DHT22;8301;51.440;6.610;2022-12-08T09:47:34;3.20;99.90
16384;DHT22;8301;51.440;6.610;2022-12-08T09:50:18;3.20;99.90
16384;DHT22;8301;51.440;6.610;2022-12-08T09:55:28;3.30;99.90
16384;DHT22;8301;51.440;6.610;2022-12-08T09:58:00;3.30;99.90
16384;DHT22;8301;51.440;6.610;2022-12-08T10:00:29;3.20;99.90
16384;DHT22;8301;51.440;6.610;2022-12-08T10:02:56;3.30;99.90
16384;DHT22;8301;51.440;6.610;2022-12-08T10:05:29;3.20;99.90
16384;DHT22;8301;51.440;6.610;2022-12-08T10:08:02;3.20;99.90
16384;DHT22;8301;51.440;6.610;2022-12-08T10:10:35;3.20;99.90
16384;DHT22;8301;51.440;6.610;2022-12-08T10:13:24;3.20;99.90
16384;DHT22;8301;51.440;6.610;2022-12-08T10:16:04;3.30;99.90
16384;DHT22;8301;51.440;6.610;2022-12-08T10:18:30;3.30;99.90
16384;DHT22;8301;51.440;6.610;2022-12-08T10:21:15;3.30;99.90
16384;DHT22;8301;51.440;6.610;2022-12-08T10:23:47;3.40;99.90
16384;DHT22;8301;51.440;6.610;2022-12-08T10:26:18;3.40;99.90
16384;DHT22;8301;51.440;6.610;2022-12-08T10:28:46;3.40;99.90
16384;DHT22;8301;51.440;6.610;2022-12-08T10:31:23;3.40;99.90
16384;DHT22;8301;51.440;6.610;2022-12-08T10:33:48;3.50;99.90
16384;DHT22;8301;51.440;6.610;2022-12-08T10:36:16;3.60;99.90
16384;DHT22;8301;51.440;6.610;2022-12-08T10:38:43;3.50;99.90
16384;DHT22;8301;51.440;6.610;2022-12-08T10:41:13;3.50;99.90
16384;DHT22;8301;51.440;6.610;2022-12-08T10:43:51;3.60;99.90
16384;DHT22;8301;51.440;6.610;2022-12-08T10:46:25;3.50;99.90
16384;DHT22;8301;51.440;6.610;2022-12-08T10:49:08;3.50;99.90
16384;DHT22;8301;51.440;6.610;2022-12-08T10:54:01;3.50;99.90
16384;DHT22;8301;51.440;6.610;2022-12-08T10:56:31;3.60;99.90
16384;DHT22;8301;51.440;6.610;2022-12-08T10:59:16;3.50;99.90
16384;DHT22;8301;51.440;6.610;2022-12-08T11:01:47;3.60;99.90
16384;DHT22;8301;51.440;6.610;2022-12-08T11:04:25;3.60;99.90
16384;DHT22;8301;51.440;6.610;2022-12-08T11:06:52;3.60;99.90
16384;DHT22;8301;51.440;6.610;2022-12-08T11:09:22;3.60;99.90
16384;DHT22;8301;51.440;6.610;2022-12-08T11:12:05;3.60;99.90
16384;DHT22;8301;51.440;6.610;2022-12-08T11:14:28;3.60;99.90
16384;DHT22;8301;51.440;6.610;2022-12-08T11:17:05;3.50;99.90
16384;DHT22;8301;51.440;6.610;2022-12-08T11:19:37;3.50;99.90
16384;DHT22;8301;51.440;6.610;2022-12-08T11:22:24;3.50;99.90
16384;DHT22;8301;51.440;6.610;2022-12-08T11:27:48;3.60;99.90
16384;DHT22;8301;51.440;6.610;2022-12-08T11:30:24;3.60;99.90
16384;DHT22;8301;51.440;6.610;2022-12-08T11:33:19;3.50;99.90
16384;DHT22;8301;51.440;6.610;2022-12-08T11:35:38;3.50;99.90
16384;DHT22;8301;51.440;6.610;2022-12-08T11:38:04;3.50;99.90
16384;DHT22;8301;51.440;6.610;2022-12-08T11:40:35;3.60;99.90
16384;DHT22;8301;51.440;6.610;2022-12-08T11:46:03;3.40;99.90
16384;DHT22;8301;51.440;6.610;2022-12-08T11:48:39;3.20;99.90
16384;DHT22;8301;51.440;6.610;2022-12-08T11:51:11;3.10;99.90
16384;DHT22;8301;51.440;6.610;2022-12-08T11:54:01;3.00;99.90
16384;DHT22;8301;51.440;6.610;2022-12-08T11:59:00;3.00;99.90
16384;DHT22;8301;51.440;6.610;2022-12-08T12:01:29;3.00;99.90
16384;DHT22;8301;51.440;6.610;2022-12-08T12:04:09;2.90;99.90
16384;DHT22;8301;51.440;6.610;2022-12-08T12:07:02;3.00;99.90
16384;DHT22;8301;51.440;6.610;2022-12-08T12:09:35;3.00;99.90
16384;DHT22;8301;51.440;6.610;2022-12-08T12:17:43;3.00;99.90
16384;DHT22;8301;51.440;6.610;2022-12-08T12:20:27;3.10;99.90
16384;DHT22;8301;51.440;6.610;2022-12-08T12:23:19;3.10;99.90
16384;DHT22;8301;51.440;6.610;2022-12-08T12:25:56;3.20;99.90
16384;DHT22;8301;51.440;6.610;2022-12-08T12:28:27;3.30;99.90
16384;DHT22;8301;51.440;6.610;2022-12-08T12:31:00;3.40;99.90
16384;DHT22;8301;51.440;6.610;2022-12-08T12:33:30;3.20;99.90
16384;DHT22;8301;51.440;6.610;2022-12-08T12:36:01;3.30;99.90
16384;DHT22;8301;51.440;6.610;2022-12-08T12:38:39;3.30;99.90
16384;DHT22;8301;51.440;6.610;2022-12-08T12:41:41;3.30;99.90
16384;DHT22;8301;51.440;6.610;2022-12-08T12:44:39;3.10;99.90
16384;DHT22;8301;51.440;6.610;2022-12-08T12:46:53;3.10;99.90
16384;DHT22;8301;51.440;6.610;2022-12-08T12:49:49;3.10;99.90
16384;DHT22;8301;51.440;6.610;2022-12-08T12:57:22;3.20;99.90
16384;DHT22;8301;51.440;6.610;2022-12-08T13:02:45;3.30;99.90
16384;DHT22;8301;51.440;6.610;2022-12-08T13:05:29;3.20;99.90
16384;DHT22;8301;51.440;6.610;2022-12-08T13:11:01;3.20;99.90
16384;DHT22;8301;51.440;6.610;2022-12-08T13:13:29;3.10;99.90
16384;DHT22;8301;51.440;6.610;2022-12-08T13:21:37;3.10;99.90
16384;DHT22;8301;51.440;6.610;2022-12-08T13:24:14;3.00;99.90
16384;DHT22;8301;51.440;6.610;2022-12-08T13:29:32;3.00;99.90
16384;DHT22;8301;51.440;6.610;2022-12-08T13:34:54;3.00;99.90
16384;DHT22;8301;51.440;6.610;2022-12-08T13:37:24;3.10;99.90
16384;DHT22;8301;51.440;6.610;2022-12-08T13:40:17;3.10;99.90
16384;DHT22;8301;51.440;6.610;2022-12-08T13:43:08;3.10;99.90
16384;DHT22;8301;51.440;6.610;2022-12-08T13:45:33;3.20;99.90
16384;DHT22;8301;51.440;6.610;2022-12-08T13:50:51;3.20;99.90
16384;DHT22;8301;51.440;6.610;2022-12-08T13:53:26;3.20;99.90
16384;DHT22;8301;51.440;6.610;2022-12-08T13:55:53;3.10;99.90
16384;DHT22;8301;51.440;6.610;2022-12-08T13:58:25;3.10;99.90
16384;DHT22;8301;51.440;6.610;2022-12-08T14:01:06;3.10;99.90
16384;DHT22;8301;51.440;6.610;2022-12-08T14:03:54;3.10;99.90
16384;DHT22;8301;51.440;6.610;2022-12-08T14:06:39;3.10;99.90
16384;DHT22;8301;51.440;6.610;2022-12-08T14:09:16;3.00;99.90
16384;DHT22;8301;51.440;6.610;2022-12-08T14:11:58;3.00;99.90
16384;DHT22;8301;51.440;6.610;2022-12-08T14:14:39;2.90;99.90
16384;DHT22;8301;51.440;6.610;2022-12-08T14:17:10;2.90;99.90
16384;DHT22;8301;51.440;6.610;2022-12-08T14:19:34;2.90;99.90
16384;DHT22;8301;51.440;6.610;2022-12-08T14:22:09;2.90;99.90
16384;DHT22;8301;51.440;6.610;2022-12-08T14:24:39;2.80;99.90
16384;DHT22;8301;51.440;6.610;2022-12-08T14:27:10;2.90;99.90
16384;DHT22;8301;51.440;6.610;2022-12-08T14:29:53;2.90;99.90
16384;DHT22;8301;51.440;6.610;2022-12-08T14:37:43;3.00;99.90
16384;DHT22;8301;51.440;6.610;2022-12-08T14:40:48;2.90;99.90
16384;DHT22;8301;51.440;6.610;2022-12-08T14:43:23;3.00;99.90
16384;DHT22;8301;51.440;6.610;2022-12-08T14:45:51;3.00;99.90
16384;DHT22;8301;51.440;6.610;2022-12-08T15:01:44;3.00;99.90
16384;DHT22;8301;51.440;6.610;2022-12-08T15:04:18;3.00;99.90
16384;DHT22;8301;51.440;6.610;2022-12-08T15:06:52;3.10;99.90
16384;DHT22;8301;51.440;6.610;2022-12-08T15:09:33;3.10;99.90
16384;DHT22;8301;51.440;6.610;2022-12-08T15:12:01;3.20;99.90
16384;DHT22;8301;51.440;6.610;2022-12-08T15:14:35;3.20;99.90
16384;DHT22;8301;51.440;6.610;2022-12-08T15:19:58;3.30;99.90
16384;DHT22;8301;51.440;6.610;2022-12-08T15:22:26;3.30;99.90
16384;DHT22;8301;51.440;6.610;2022-12-08T15:24:55;3.40;99.90
16384;DHT22;8301;51.440;6.610;2022-12-08T15:27:25;3.40;99.90
16384;DHT22;8301;51.440;6.610;2022-12-08T15:29:52;3.40;99.90
16384;DHT22;8301;51.440;6.610;2022-12-08T15:32:22;3.30;99.90
16384;DHT22;8301;51.440;6.610;2022-12-08T15:34:50;3.40;99.90
16384;DHT22;8301;51.440;6.610;2022-12-08T15:37:23;3.40;99.90
16384;DHT22;8301;51.440;6.610;2022-12-08T15:39:52;3.40;99.90
16384;DHT22;8301;51.440;6.610;2022-12-08T15:42:20;3.40;99.90
16384;DHT22;8301;51.440;6.610;2022-12-08T15:44:49;3.40;99.90
16384;DHT22;8301;51.440;6.610;2022-12-08T15:47:22;3.50;99.90
16384;DHT22;8301;51.440;6.610;2022-12-08T15:49:51;3.40;99.90
16384;DHT22;8301;51.440;6.610;2022-12-08T15:52:21;3.50;99.90
16384;DHT22;8301;51.440;6.610;2022-12-08T15:54:50;3.30;99.90
16384;DHT22;8301;51.440;6.610;2022-12-08T15:57:25;3.30;99.90
16384;DHT22;8301;51.440;6.610;2022-12-08T15:59:53;3.20;99.90
16384;DHT22;8301;51.440;6.610;2022-12-08T16:02:21;3.30;99.90
16384;DHT22;8301;51.440;6.610;2022-12-08T16:04:48;3.40;99.90
16384;DHT22;8301;51.440;6.610;2022-12-08T16:07:22;3.30;99.90
16384;DHT22;8301;51.440;6.610;2022-12-08T16:09:51;3.20;99.90
16384;DHT22;8301;51.440;6.610;2022-12-08T16:12:25;3.20;99.90
16384;DHT22;8301;51.440;6.610;2022-12-08T16:15:07;3.10;99.90
16384;DHT22;8301;51.440;6.610;2022-12-08T16:17:36;3.10;99.90
16384;DHT22;8301;51.440;6.610;2022-12-08T16:20:05;3.20;99.90
16384;DHT22;8301;51.440;6.610;2022-12-08T16:22:35;3.20;99.90
16384;DHT22;8301;51.440;6.610;2022-12-08T16:25:06;3.20;99.90
16384;DHT22;8301;51.440;6.610;2022-12-08T16:27:37;3.20;99.90
16384;DHT22;8301;51.440;6.610;2022-12-08T16:30:10;3.10;99.90
16384;DHT22;8301;51.440;6.610;2022-12-08T16:32:36;3.20;99.90
16384;DHT22;8301;51.440;6.610;2022-12-08T16:35:03;3.10;99.90
16384;DHT22;8301;51.440;6.610;2022-12-08T16:37:31;3.10;99.90
16384;DHT22;8301;51.440;6.610;2022-12-08T16:39:59;3.10;99.90
16384;DHT22;8301;51.440;6.610;2022-12-08T16:42:29;3.30;99.90
16384;DHT22;8301;51.440;6.610;2022-12-08T16:45:24;3.30;99.90
16384;DHT22;8301;51.440;6.610;2022-12-08T16:47:56;3.30;99.90
16384;DHT22;8301;51.440;6.610;2022-12-08T16:50:28;3.30;99.90
16384;DHT22;8301;51.440;6.610;2022-12-08T16:53:06;3.40;99.90
16384;DHT22;8301;51.440;6.610;2022-12-08T16:55:38;3.40;99.90
16384;DHT22;8301;51.440;6.610;2022-12-08T16:58:07;3.40;99.90
16384;DHT22;8301;51.440;6.610;2022-12-08T17:00:35;3.40;99.90
16384;DHT22;8301;51.440;6.610;2022-12-08T17:03:04;3.40;99.90
16384;DHT22;8301;51.440;6.610;2022-12-08T17:05:39;3.50;99.90
16384;DHT22;8301;51.440;6.610;2022-12-08T17:08:08;3.40;99.90
16384;DHT22;8301;51.440;6.610;2022-12-08T17:10:37;3.50;99.90
16384;DHT22;8301;51.440;6.610;2022-12-08T17:13:06;3.50;99.90
16384;DHT22;8301;51.440;6.610;2022-12-08T17:15:33;3.50;99.90
16384;DHT22;8301;51.440;6.610;2022-12-08T17:18:02;3.40;99.90
16384;DHT22;8301;51.440;6.610;2022-12-08T17:20:30;3.40;99.90
16384;DHT22;8301;51.440;6.610;2022-12-08T17:23:00;3.40;99.90
16384;DHT22;8301;51.440;6.610;2022-12-08T17:25:28;3.40;99.90
16384;DHT22;8301;51.440;6.610;2022-12-08T17:27:55;3.40;99.90
16384;DHT22;8301;51.440;6.610;2022-12-08T17:30:23;3.50;99.90
16384;DHT22;8301;51.440;6.610;2022-12-08T17:32:51;3.40;99.90
16384;DHT22;8301;51.440;6.610;2022-12-08T17:35:18;3.40;99.90
16384;DHT22;8301;51.440;6.610;2022-12-08T17:37:51;3.40;99.90
16384;DHT22;8301;51.440;6.610;2022-12-08T17:40:23;3.30;99.90
16384;DHT22;8301;51.440;6.610;2022-12-08T17:45:19;3.30;99.90
16384;DHT22;8301;51.440;6.610;2022-12-08T17:47:47;3.30;99.90
16384;DHT22;8301;51.440;6.610;2022-12-08T17:50:17;3.30;99.90
16384;DHT22;8301;51.440;6.610;2022-12-08T17:52:44;3.30;99.90
16384;DHT22;8301;51.440;6.610;2022-12-08T17:55:16;3.20;99.90
16384;DHT22;8301;51.440;6.610;2022-12-08T17:57:44;3.10;99.90
16384;DHT22;8301;51.440;6.610;2022-12-08T18:00:11;3.10;99.90
16384;DHT22;8301;51.440;6.610;2022-12-08T18:02:43;3.00;99.90
16384;DHT22;8301;51.440;6.610;2022-12-08T18:05:11;3.00;99.90
16384;DHT22;8301;51.440;6.610;2022-12-08T18:07:38;3.00;99.90